sensor_id;sensor_type;location;lat;lon;timestamp;pressure;altitude;pressure_sealevel;temperature;humidity
37878;BME280;23715;53.652;8.516;2023-04-02T00:08:49;101727.42;;;4.10;100.00
37878;BME280;23715;53.652;8.516;2023-04-02T00:13:51;101740.20;;;4.13;100.00
37878;BME280;23715;53.652;8.516;2023-04-02T00:34:39;101773.19;;;3.67;100.00
37878;BME280;23715;53.652;8.516;2023-04-02T00:40:02;101783.94;;;3.44;100.00
37878;BME280;23715;53.652;8.516;2023-04-02T00:45:09;101786.86;;;3.48;100.00
37878;BME280;23715;53.652;8.516;2023-04-02T00:50:19;101799.78;;;3.35;100.00
37878;BME280;23715;53.652;8.516;2023-04-02T00:55:32;101802.95;;;3.23;100.00
37878;BME280;23715;53.652;8.516;2023-04-02T01:06:03;101822.27;;;3.04;100.00
37878;BME280;23715;53.652;8.516;2023-04-02T01:22:23;101839.94;;;3.05;100.00
37878;BME280;23715;53.652;8.516;2023-04-02T01:27:22;101851.21;;;3.12;100.00
37878;BME280;23715;53.652;8.516;2023-04-02T01:32:24;101861.28;;;3.04;100.00
37878;BME280;23715;53.652;8.516;2023-04-02T01:48:38;101880.85;;;3.25;100.00
37878;BME280;23715;53.652;8.516;2023-04-02T01:53:39;101890.94;;;3.39;100.00
37878;BME280;23715;53.652;8.516;2023-04-02T01:58:59;101893.63;;;3.49;100.00
37878;BME280;23715;53.652;8.516;2023-04-02T02:04:02;101906.56;;;3.70;100.00
37878;BME280;23715;53.652;8.516;2023-04-02T02:09:23;101911.48;;;3.79;100.00
37878;BME280;23715;53.652;8.516;2023-04-02T02:14:26;101914.62;;;3.79;100.00
37878;BME280;23715;53.652;8.516;2023-04-02T02:19:48;101914.72;;;3.87;100.00
37878;BME280;23715;53.652;8.516;2023-04-02T02:24:48;101926.92;;;3.81;100.00
37878;BME280;23715;53.652;8.516;2023-04-02T02:30:21;101942.66;;;3.54;100.00
37878;BME280;23715;53.652;8.516;2023-04-02T02:35:21;101945.36;;;3.76;100.00
37878;BME280;23715;53.652;8.516;2023-04-02T02:45:45;101962.73;;;3.84;100.00
37878;BME280;23715;53.652;8.516;2023-04-02T02:56:09;101975.09;;;3.63;100.00
37878;BME280;23715;53.652;8.516;2023-04-02T03:01:11;101983.86;;;3.77;100.00
37878;BME280;23715;53.652;8.516;2023-04-02T03:06:15;101986.37;;;3.92;100.00
37878;BME280;23715;53.652;8.516;2023-04-02T03:11:38;101995.49;;;3.75;100.00
37878;BME280;23715;53.652;8.516;2023-04-02T03:17:09;102006.61;;;3.74;100.00
37878;BME280;23715;53.652;8.516;2023-04-02T03:32:42;102024.13;;;3.80;100.00
37878;BME280;23715;53.652;8.516;2023-04-02T03:43:20;102038.77;;;3.80;100.00
37878;BME280;23715;53.652;8.516;2023-04-02T03:48:46;102047.03;;;3.84;100.00
37878;BME280;23715;53.652;8.516;2023-04-02T03:53:45;102058.78;;;3.78;100.00
37878;BME280;23715;53.652;8.516;2023-04-02T03:59:20;102060.27;;;3.74;100.00
37878;BME280;23715;53.652;8.516;2023-04-02T04:04:21;102065.81;;;3.79;100.00
37878;BME280;23715;53.652;8.516;2023-04-02T04:14:31;102092.38;;;3.69;100.00
37878;BME280;23715;53.652;8.516;2023-04-02T04:19:53;102106.91;;;3.72;100.00
37878;BME280;23715;53.652;8.516;2023-04-02T04:24:55;102115.28;;;3.73;100.00
37878;BME280;23715;53.652;8.516;2023-04-02T04:35:26;102138.30;;;3.49;100.00
37878;BME280;23715;53.652;8.516;2023-04-02T04:40:50;102147.77;;;3.58;100.00
37878;BME280;23715;53.652;8.516;2023-04-02T04:46:07;102154.48;;;3.68;100.00
37878;BME280;23715;53.652;8.516;2023-04-02T04:56:47;102178.05;;;3.79;100.00
37878;BME280;23715;53.652;8.516;2023-04-02T05:02:04;102182.50;;;3.78;100.00
37878;BME280;23715;53.652;8.516;2023-04-02T05:07:12;102196.04;;;3.72;100.00
37878;BME280;23715;53.652;8.516;2023-04-02T05:23:27;102232.00;;;3.70;100.00
37878;BME280;23715;53.652;8.516;2023-04-02T05:33:48;102254.17;;;3.83;100.00
37878;BME280;23715;53.652;8.516;2023-04-02T05:39:09;102267.09;;;3.82;100.00
37878;BME280;23715;53.652;8.516;2023-04-02T05:49:43;102279.95;;;3.94;100.00
37878;BME280;23715;53.652;8.516;2023-04-02T05:54:57;102290.50;;;3.97;100.00
37878;BME280;23715;53.652;8.516;2023-04-02T05:59:51;102298.86;;;4.11;100.00
37878;BME280;23715;53.652;8.516;2023-04-02T06:10:30;102319.22;;;4.26;100.00
37878;BME280;23715;53.652;8.516;2023-04-02T06:15:26;102325.84;;;4.39;100.00
37878;BME280;23715;53.652;8.516;2023-04-02T06:25:43;102337.84;;;4.63;100.00
37878;BME280;23715;53.652;8.516;2023-04-02T06:31:06;102348.01;;;4.65;100.00
37878;BME280;23715;53.652;8.516;2023-04-02T06:36:08;102361.28;;;4.78;100.00
37878;BME280;23715;53.652;8.516;2023-04-02T06:41:20;102366.14;;;4.91;100.00
37878;BME280;23715;53.652;8.516;2023-04-02T06:46:55;102373.33;;;4.88;100.00
37878;BME280;23715;53.652;8.516;2023-04-02T06:51:57;102379.17;;;4.75;100.00
37878;BME280;23715;53.652;8.516;2023-04-02T07:07:51;102392.73;;;5.16;100.00
37878;BME280;23715;53.652;8.516;2023-04-02T07:12:52;102396.77;;;5.38;100.00
37878;BME280;23715;53.652;8.516;2023-04-02T07:18:22;102401.41;;;5.33;100.00
37878;BME280;23715;53.652;8.516;2023-04-02T07:23:19;102408.28;;;5.50;100.00
37878;BME280;23715;53.652;8.516;2023-04-02T07:33:38;102419.66;;;5.55;100.00
37878;BME280;23715;53.652;8.516;2023-04-02T07:38:59;102432.38;;;5.71;100.00
37878;BME280;23715;53.652;8.516;2023-04-02T07:44:05;102431.09;;;5.81;100.00
37878;BME280;23715;53.652;8.516;2023-04-02T07:49:09;102435.27;;;5.88;100.00
37878;BME280;23715;53.652;8.516;2023-04-02T07:54:09;102454.54;;;5.96;100.00
37878;BME280;23715;53.652;8.516;2023-04-02T08:20:20;102488.83;;;6.60;100.00
37878;BME280;23715;53.652;8.516;2023-04-02T08:25:21;102502.41;;;6.86;100.00
37878;BME280;23715;53.652;8.516;2023-04-02T08:30:42;102517.19;;;7.15;100.00
37878;BME280;23715;53.652;8.516;2023-04-02T08:35:49;102522.72;;;7.11;100.00
37878;BME280;23715;53.652;8.516;2023-04-02T08:46:13;102517.41;;;7.40;100.00
37878;BME280;23715;53.652;8.516;2023-04-02T08:51:31;102533.73;;;7.44;100.00
37878;BME280;23715;53.652;8.516;2023-04-02T08:56:36;102536.84;;;7.43;100.00
37878;BME280;23715;53.652;8.516;2023-04-02T09:01:38;102536.84;;;7.43;100.00
37878;BME280;23715;53.652;8.516;2023-04-02T09:11:40;102546.52;;;8.05;100.00
37878;BME280;23715;53.652;8.516;2023-04-02T09:16:54;102549.11;;;8.34;100.00
37878;BME280;23715;53.652;8.516;2023-04-02T09:32:52;102559.94;;;7.94;100.00
37878;BME280;23715;53.652;8.516;2023-04-02T09:38:15;102568.92;;;8.12;100.00
37878;BME280;23715;53.652;8.516;2023-04-02T09:43:15;102569.92;;;8.10;100.00
37878;BME280;23715;53.652;8.516;2023-04-02T09:48:23;102583.91;;;8.16;100.00
37878;BME280;23715;53.652;8.516;2023-04-02T09:53:33;102595.81;;;8.38;100.00
37878;BME280;23715;53.652;8.516;2023-04-02T09:58:34;102598.49;;;8.57;100.00
37878;BME280;23715;53.652;8.516;2023-04-02T10:03:35;102604.48;;;8.35;100.00
37878;BME280;23715;53.652;8.516;2023-04-02T10:08:37;102604.50;;;8.71;100.00
37878;BME280;23715;53.652;8.516;2023-04-02T10:13:55;102607.05;;;8.92;100.00
37878;BME280;23715;53.652;8.516;2023-04-02T10:24:16;102607.59;;;9.25;100.00
37878;BME280;23715;53.652;8.516;2023-04-02T10:40:00;102630.48;;;9.49;100.00
37878;BME280;23715;53.652;8.516;2023-04-02T10:45:16;102635.14;;;9.54;100.00
37878;BME280;23715;53.652;8.516;2023-04-02T10:55:58;102653.61;;;9.52;100.00
37878;BME280;23715;53.652;8.516;2023-04-02T11:01:08;102658.62;;;9.33;100.00
37878;BME280;23715;53.652;8.516;2023-04-02T11:06:09;102657.45;;;9.72;100.00
37878;BME280;23715;53.652;8.516;2023-04-02T11:11:15;102655.06;;;9.75;100.00
37878;BME280;23715;53.652;8.516;2023-04-02T11:16:15;102664.09;;;9.83;100.00
37878;BME280;23715;53.652;8.516;2023-04-02T11:21:43;102669.19;;;9.96;100.00
37878;BME280;23715;53.652;8.516;2023-04-02T11:26:44;102667.36;;;9.96;100.00
37878;BME280;23715;53.652;8.516;2023-04-02T11:31:46;102673.08;;;9.90;100.00
37878;BME280;23715;53.652;8.516;2023-04-02T11:42:53;102683.27;;;9.84;100.00
37878;BME280;23715;53.652;8.516;2023-04-02T11:47:21;102684.17;;;9.75;100.00
37878;BME280;23715;53.652;8.516;2023-04-02T11:52:25;102665.41;;;10.41;100.00
37878;BME280;23715;53.652;8.516;2023-04-02T11:57:41;102681.70;;;10.38;100.00
37878;BME280;23715;53.652;8.516;2023-04-02T12:08:23;102683.63;;;10.67;100.00
37878;BME280;23715;53.652;8.516;2023-04-02T12:18:47;102693.23;;;11.03;100.00
37878;BME280;23715;53.652;8.516;2023-04-02T12:23:51;102706.88;;;10.84;100.00
37878;BME280;23715;53.652;8.516;2023-04-02T12:28:52;102712.05;;;10.48;100.00
37878;BME280;23715;53.652;8.516;2023-04-02T12:33:54;102723.61;;;10.66;100.00
37878;BME280;23715;53.652;8.516;2023-04-02T12:38:56;102737.66;;;10.40;98.97
37878;BME280;23715;53.652;8.516;2023-04-02T12:43:58;102734.89;;;10.57;100.00
37878;BME280;23715;53.652;8.516;2023-04-02T12:49:07;102745.16;;;10.24;100.00
37878;BME280;23715;53.652;8.516;2023-04-02T12:54:12;102740.21;;;10.50;96.19
37878;BME280;23715;53.652;8.516;2023-04-02T12:59:36;102732.63;;;10.97;98.35
37878;BME280;23715;53.652;8.516;2023-04-02T13:04:44;102741.17;;;10.81;98.58
37878;BME280;23715;53.652;8.516;2023-04-02T13:14:43;102740.51;;;11.00;92.55
37878;BME280;23715;53.652;8.516;2023-04-02T13:19:44;102752.70;;;11.14;90.50
37878;BME280;23715;53.652;8.516;2023-04-02T13:24:44;102754.13;;;11.29;98.12
37878;BME280;23715;53.652;8.516;2023-04-02T13:29:44;102745.80;;;11.41;95.76
37878;BME280;23715;53.652;8.516;2023-04-02T13:34:45;102751.59;;;11.49;98.08
37878;BME280;23715;53.652;8.516;2023-04-02T13:39:44;102755.31;;;11.39;98.59
37878;BME280;23715;53.652;8.516;2023-04-02T13:44:45;102760.09;;;11.34;93.13
37878;BME280;23715;53.652;8.516;2023-04-02T13:49:45;102757.70;;;11.60;96.50
37878;BME280;23715;53.652;8.516;2023-04-02T13:54:51;102769.07;;;11.42;96.00
37878;BME280;23715;53.652;8.516;2023-04-02T13:59:52;102774.33;;;11.29;90.96
37878;BME280;23715;53.652;8.516;2023-04-02T14:05:01;102768.75;;;11.32;94.72
37878;BME280;23715;53.652;8.516;2023-04-02T14:15:45;102782.45;;;11.20;87.41
37878;BME280;23715;53.652;8.516;2023-04-02T14:21:03;102780.91;;;11.39;86.84
37878;BME280;23715;53.652;8.516;2023-04-02T14:31:24;102788.86;;;11.33;89.18
37878;BME280;23715;53.652;8.516;2023-04-02T14:41:37;102787.64;;;11.39;85.33
37878;BME280;23715;53.652;8.516;2023-04-02T14:46:36;102790.03;;;11.60;81.46
37878;BME280;23715;53.652;8.516;2023-04-02T14:51:51;102795.80;;;11.53;83.71
37878;BME280;23715;53.652;8.516;2023-04-02T14:57:10;102800.50;;;11.34;86.70
37878;BME280;23715;53.652;8.516;2023-04-02T15:02:33;102790.74;;;11.47;82.58
37878;BME280;23715;53.652;8.516;2023-04-02T15:23:17;102818.34;;;11.44;82.33
37878;BME280;23715;53.652;8.516;2023-04-02T15:28:25;102825.15;;;11.35;82.02
37878;BME280;23715;53.652;8.516;2023-04-02T15:38:37;102836.61;;;11.23;84.87
37878;BME280;23715;53.652;8.516;2023-04-02T15:44:13;102842.14;;;11.12;89.00
37878;BME280;23715;53.652;8.516;2023-04-02T15:49:36;102847.95;;;11.21;84.95
37878;BME280;23715;53.652;8.516;2023-04-02T16:00:22;102858.75;;;10.96;81.04
37878;BME280;23715;53.652;8.516;2023-04-02T16:10:40;102877.06;;;10.65;95.87
37878;BME280;23715;53.652;8.516;2023-04-02T16:15:48;102883.16;;;10.68;96.05
37878;BME280;23715;53.652;8.516;2023-04-02T16:20:49;102884.80;;;10.71;90.89
37878;BME280;23715;53.652;8.516;2023-04-02T16:31:28;102891.64;;;10.61;90.78
37878;BME280;23715;53.652;8.516;2023-04-02T16:36:43;102903.59;;;10.46;93.95
37878;BME280;23715;53.652;8.516;2023-04-02T16:57:52;102937.89;;;10.06;100.00
37878;BME280;23715;53.652;8.516;2023-04-02T17:08:14;102971.95;;;9.97;100.00
37878;BME280;23715;53.652;8.516;2023-04-02T17:18:30;102990.17;;;9.82;100.00
37878;BME280;23715;53.652;8.516;2023-04-02T17:23:31;103001.95;;;9.41;100.00
37878;BME280;23715;53.652;8.516;2023-04-02T17:28:34;103010.18;;;9.28;100.00
37878;BME280;23715;53.652;8.516;2023-04-02T17:33:37;103022.42;;;9.14;100.00
37878;BME280;23715;53.652;8.516;2023-04-02T18:00:27;103066.88;;;8.25;100.00
37878;BME280;23715;53.652;8.516;2023-04-02T18:16:26;103102.19;;;7.90;100.00
37878;BME280;23715;53.652;8.516;2023-04-02T18:21:41;103106.03;;;7.83;100.00
37878;BME280;23715;53.652;8.516;2023-04-02T18:26:59;103108.66;;;7.85;100.00
37878;BME280;23715;53.652;8.516;2023-04-02T18:37:32;103134.37;;;6.90;100.00
37878;BME280;23715;53.652;8.516;2023-04-02T18:42:47;103145.53;;;6.62;100.00
37878;BME280;23715;53.652;8.516;2023-04-02T18:53:16;103172.58;;;6.23;100.00
37878;BME280;23715;53.652;8.516;2023-04-02T18:58:23;103176.50;;;6.12;100.00
37878;BME280;23715;53.652;8.516;2023-04-02T19:03:38;103185.12;;;5.90;100.00
37878;BME280;23715;53.652;8.516;2023-04-02T19:13:38;103204.75;;;5.56;100.00
37878;BME280;23715;53.652;8.516;2023-04-02T19:24:18;103229.27;;;5.20;100.00
37878;BME280;23715;53.652;8.516;2023-04-02T19:29:41;103240.09;;;5.12;100.00
37878;BME280;23715;53.652;8.516;2023-04-02T19:34:54;103243.66;;;5.13;100.00
37878;BME280;23715;53.652;8.516;2023-04-02T19:44:56;103247.09;;;5.36;100.00
37878;BME280;23715;53.652;8.516;2023-04-02T19:50:00;103246.75;;;5.32;100.00
37878;BME280;23715;53.652;8.516;2023-04-02T19:55:00;103250.95;;;5.58;100.00
37878;BME280;23715;53.652;8.516;2023-04-02T20:00:00;103258.53;;;5.57;100.00
37878;BME280;23715;53.652;8.516;2023-04-02T20:05:02;103267.23;;;5.47;100.00
37878;BME280;23715;53.652;8.516;2023-04-02T20:10:22;103272.94;;;5.50;100.00
37878;BME280;23715;53.652;8.516;2023-04-02T20:15:22;103273.91;;;5.47;100.00
37878;BME280;23715;53.652;8.516;2023-04-02T20:20:22;103284.28;;;5.42;100.00
37878;BME280;23715;53.652;8.516;2023-04-02T20:25:22;103290.66;;;5.18;100.00
37878;BME280;23715;53.652;8.516;2023-04-02T20:30:42;103299.09;;;5.00;100.00
37878;BME280;23715;53.652;8.516;2023-04-02T20:35:43;103300.94;;;4.96;100.00
37878;BME280;23715;53.652;8.516;2023-04-02T20:41:03;103308.09;;;4.94;100.00
37878;BME280;23715;53.652;8.516;2023-04-02T20:46:05;103322.81;;;4.50;100.00
37878;BME280;23715;53.652;8.516;2023-04-02T20:56:09;103330.54;;;4.63;100.00
37878;BME280;23715;53.652;8.516;2023-04-02T21:01:12;103336.61;;;4.71;100.00
37878;BME280;23715;53.652;8.516;2023-04-02T21:06:19;103351.02;;;3.93;100.00
37878;BME280;23715;53.652;8.516;2023-04-02T21:11:20;103354.08;;;3.94;100.00
37878;BME280;23715;53.652;8.516;2023-04-02T21:16:40;103369.08;;;3.74;100.00
37878;BME280;23715;53.652;8.516;2023-04-02T21:21:40;103370.50;;;3.95;100.00
37878;BME280;23715;53.652;8.516;2023-04-02T21:32:03;103377.83;;;3.81;100.00
37878;BME280;23715;53.652;8.516;2023-04-02T21:37:22;103378.25;;;3.83;100.00
37878;BME280;23715;53.652;8.516;2023-04-02T21:42:22;103386.73;;;3.80;100.00
37878;BME280;23715;53.652;8.516;2023-04-02T21:52:48;103396.31;;;3.90;100.00
37878;BME280;23715;53.652;8.516;2023-04-02T22:03:13;103398.59;;;4.11;100.00
37878;BME280;23715;53.652;8.516;2023-04-02T22:13:35;103383.16;;;3.81;100.00
37878;BME280;23715;53.652;8.516;2023-04-02T22:18:56;103396.52;;;3.49;100.00
37878;BME280;23715;53.652;8.516;2023-04-02T22:24:00;103451.05;;;3.49;100.00
37878;BME280;23715;53.652;8.516;2023-04-02T22:34:28;103411.61;;;3.48;100.00
37878;BME280;23715;53.652;8.516;2023-04-02T23:00:32;103437.93;;;3.38;100.00
37878;BME280;23715;53.652;8.516;2023-04-02T23:05:34;103441.91;;;3.40;100.00
37878;BME280;23715;53.652;8.516;2023-04-02T23:16:03;103451.59;;;3.44;100.00
37878;BME280;23715;53.652;8.516;2023-04-02T23:21:23;103457.02;;;3.36;100.00
37878;BME280;23715;53.652;8.516;2023-04-02T23:26:43;103456.91;;;3.09;100.00
37878;BME280;23715;53.652;8.516;2023-04-02T23:31:44;103469.31;;;3.11;100.00
37878;BME280;23715;53.652;8.516;2023-04-02T23:47:36;103478.90;;;2.88;100.00
37878;BME280;23715;53.652;8.516;2023-04-02T23:52:36;103481.23;;;2.75;100.00
37878;BME280;23715;53.652;8.516;2023-04-02T23:57:42;103482.77;;;2.57;100.00
